Time;durP1;ratioP1;P1;durP2;ratioP2;P2;SDS_P1;SDS_P2;PMS_P1;PMS_P2;Temp;Humidity;BMP_temperature;BMP_pressure;BME280_temperature;BME280_humidity;BME280_pressure;Samples;Min_cycle;Max_cycle;Signal;HPM_P1;HPM_P2
2024/01/24 00:00:40;;;;;;;5.97;2.25;;;;;;;12.00;100.00;101327.44;5034633;28;20116;-88
2024/01/24 00:03:05;;;;;;;3.22;1.55;;;;;;;12.05;100.00;101318.28;5044932;28;20052;-87
2024/01/24 00:05:38;;;;;;;5.38;1.63;;;;;;;12.09;100.00;101305.69;5043273;28;20029;-88
2024/01/24 00:08:07;;;;;;;4.95;1.65;;;;;;;12.09;100.00;101297.78;5049415;28;20027;-88
2024/01/24 00:10:32;;;;;;;4.93;1.60;;;;;;;12.09;100.00;101310.97;5052323;28;20025;-88
2024/01/24 00:12:58;;;;;;;5.35;1.85;;;;;;;12.07;100.00;101323.44;5050980;28;20021;-88
2024/01/24 00:15:26;;;;;;;4.25;1.50;;;;;;;12.09;100.00;101342.63;5052220;28;20035;-88
2024/01/24 00:18:01;;;;;;;4.93;1.48;;;;;;;12.12;100.00;101347.69;5050288;28;20504;-88
2024/01/24 00:20:32;;;;;;;5.90;1.40;;;;;;;12.11;100.00;101346.84;5033539;28;20115;-89
2024/01/24 00:22:57;;;;;;;4.00;1.50;;;;;;;12.14;100.00;101356.31;5047987;28;20029;-88
2024/01/24 00:25:24;;;;;;;4.68;1.65;;;;;;;12.16;100.00;101341.22;5031216;28;20028;-87
2024/01/24 00:27:49;;;;;;;3.35;1.35;;;;;;;12.21;100.00;101318.81;5033333;28;20021;-87
2024/01/24 00:30:15;;;;;;;2.72;1.10;;;;;;;12.23;100.00;101324.81;5052002;28;20112;-87
2024/01/24 00:32:40;;;;;;;3.75;1.40;;;;;;;12.22;100.00;101320.50;5051318;28;20384;-87
2024/01/24 00:35:06;;;;;;;3.10;1.05;;;;;;;12.26;100.00;101312.38;5048947;28;20441;-88
2024/01/24 00:37:31;;;;;;;2.55;1.30;;;;;;;12.27;100.00;101301.69;5050489;28;20032;-87
2024/01/24 00:39:56;;;;;;;3.13;1.33;;;;;;;12.28;100.00;101308.66;5048441;28;20043;-88
2024/01/24 00:42:22;;;;;;;2.38;1.02;;;;;;;12.29;100.00;101305.06;5046173;28;20028;-87
2024/01/24 00:44:51;;;;;;;4.13;1.20;;;;;;;12.34;100.00;101321.41;5050354;28;20021;-88
2024/01/24 00:47:20;;;;;;;3.30;1.15;;;;;;;12.37;100.00;101302.69;5033064;28;20041;-87
2024/01/24 00:49:45;;;;;;;3.33;1.42;;;;;;;12.36;100.00;101311.56;5044726;28;20116;-87
2024/01/24 00:52:11;;;;;;;3.15;1.23;;;;;;;12.34;100.00;101295.00;5031603;28;20120;-88
2024/01/24 00:54:36;;;;;;;2.25;1.00;;;;;;;12.36;100.00;101297.53;5044984;28;20461;-87
2024/01/24 00:57:02;;;;;;;5.05;1.40;;;;;;;12.39;100.00;101307.84;5051533;28;20474;-87
2024/01/24 00:59:27;;;;;;;3.03;1.20;;;;;;;12.35;100.00;101301.97;5050317;28;20031;-88
2024/01/24 01:01:53;;;;;;;2.83;1.15;;;;;;;12.37;100.00;101318.53;5049319;28;20025;-89
2024/01/24 01:04:18;;;;;;;2.42;1.27;;;;;;;12.29;100.00;101297.16;5050706;28;20036;-87
2024/01/24 01:06:43;;;;;;;3.15;1.35;;;;;;;12.27;100.00;101312.25;5037711;28;20104;-87
2024/01/24 01:09:10;;;;;;;2.75;1.40;;;;;;;12.21;100.00;101288.97;5029788;28;20017;-87
2024/01/24 01:11:35;;;;;;;3.20;1.27;;;;;;;12.12;100.00;101310.75;5031469;28;20057;-88
2024/01/24 01:14:01;;;;;;;3.47;1.15;;;;;;;12.08;100.00;101309.28;5030776;28;20544;-88
2024/01/24 01:16:26;;;;;;;2.58;1.23;;;;;;;12.03;100.00;101306.16;5030516;28;20022;-87
2024/01/24 01:18:52;;;;;;;4.68;1.20;;;;;;;11.98;100.00;101295.91;5049705;28;20460;-87
2024/01/24 01:21:20;;;;;;;4.20;1.30;;;;;;;11.92;100.00;101294.56;5033179;28;20649;-86
2024/01/24 01:23:45;;;;;;;2.63;1.20;;;;;;;11.92;100.00;101281.38;5050426;28;20020;-87
2024/01/24 01:26:11;;;;;;;2.50;1.10;;;;;;;11.92;100.00;101288.44;5050323;28;20033;-88
2024/01/24 01:28:36;;;;;;;2.55;1.27;;;;;;;11.89;100.00;101292.16;5049236;28;20495;-88
2024/01/24 01:31:02;;;;;;;2.70;1.40;;;;;;;11.84;100.00;101291.63;5048506;28;20021;-88
2024/01/24 01:33:27;;;;;;;3.38;1.20;;;;;;;11.82;100.00;101283.00;5048045;28;20025;-88
2024/01/24 01:35:53;;;;;;;3.05;1.45;;;;;;;11.77;100.00;101274.56;5028782;28;20159;-88
2024/01/24 01:38:18;;;;;;;2.28;1.10;;;;;;;11.74;100.00;101279.22;5045219;28;20052;-88
2024/01/24 01:40:46;;;;;;;3.40;1.20;;;;;;;11.71;100.00;101290.81;5048765;28;20082;-88
2024/01/24 01:43:13;;;;;;;2.33;1.10;;;;;;;11.69;100.00;101287.44;5034106;28;20079;-89
2024/01/24 01:45:39;;;;;;;2.47;1.15;;;;;;;11.68;100.00;101293.69;5036572;28;20032;-88
2024/01/24 01:48:05;;;;;;;2.83;1.15;;;;;;;11.67;100.00;101292.00;5047990;28;20017;-88
2024/01/24 01:50:30;;;;;;;2.42;1.10;;;;;;;11.66;100.00;101292.94;5038410;28;20788;-87
2024/01/24 01:52:59;;;;;;;2.03;1.02;;;;;;;11.65;100.00;101296.53;5047400;28;20044;-87
2024/01/24 01:55:25;;;;;;;1.80;1.00;;;;;;;11.63;100.00;101308.13;5048187;28;20039;-88
2024/01/24 01:57:50;;;;;;;2.10;1.10;;;;;;;11.59;100.00;101308.31;5049493;28;20025;-87
2024/01/24 02:00:20;;;;;;;2.22;1.00;;;;;;;11.57;100.00;101289.13;5032846;28;20032;-86
2024/01/24 02:02:46;;;;;;;3.78;1.10;;;;;;;11.53;100.00;101281.56;5046217;28;20036;-85
2024/01/24 02:05:13;;;;;;;2.30;1.00;;;;;;;11.49;100.00;101290.63;5029654;28;20026;-85
2024/01/24 02:07:38;;;;;;;1.63;0.95;;;;;;;11.46;100.00;101275.91;5041690;28;20033;-85
2024/01/24 02:10:04;;;;;;;2.17;1.08;;;;;;;11.44;100.00;101276.97;5026897;28;20367;-86
2024/01/24 02:12:29;;;;;;;1.33;1.00;;;;;;;11.40;100.00;101283.41;5039453;28;20094;-85
2024/01/24 02:14:55;;;;;;;2.13;0.90;;;;;;;11.37;100.00;101287.09;5040431;28;20075;-84
2024/01/24 02:17:20;;;;;;;3.00;0.90;;;;;;;11.35;100.00;101306.59;5049107;28;20029;-84
2024/01/24 02:19:46;;;;;;;2.00;1.10;;;;;;;11.34;100.00;101297.84;5049065;28;20032;-84
2024/01/24 02:22:11;;;;;;;1.83;0.93;;;;;;;11.33;100.00;101295.31;5048760;28;20033;-84
2024/01/24 02:24:37;;;;;;;1.15;0.77;;;;;;;11.32;100.00;101285.72;5046241;28;20044;-84
2024/01/24 02:27:02;;;;;;;1.95;0.90;;;;;;;11.30;100.00;101281.41;5028196;28;20056;-84
2024/01/24 02:29:29;;;;;;;2.10;0.70;;;;;;;11.29;100.00;101285.00;5044433;28;20741;-84
2024/01/24 02:31:55;;;;;;;0.80;0.60;;;;;;;11.29;100.00;101286.78;5047501;28;20085;-84
2024/01/24 02:34:21;;;;;;;1.77;0.75;;;;;;;11.28;100.00;101288.59;5047817;28;20036;-83
2024/01/24 02:36:46;;;;;;;4.15;0.90;;;;;;;11.27;100.00;101286.91;5048926;28;20024;-84
2024/01/24 02:39:12;;;;;;;1.42;0.93;;;;;;;11.24;100.00;101287.13;5045803;28;20049;-83
2024/01/24 02:41:40;;;;;;;1.10;0.60;;;;;;;11.24;100.00;101291.53;5027655;28;20040;-83
2024/01/24 02:44:06;;;;;;;1.25;0.73;;;;;;;11.24;100.00;101291.53;5040893;28;20020;-83
2024/01/24 02:46:31;;;;;;;1.15;0.80;;;;;;;11.25;100.00;101303.75;5033736;28;20024;-83
2024/01/24 02:48:56;;;;;;;0.80;0.80;;;;;;;11.24;100.00;101305.56;5047939;28;20492;-84
2024/01/24 02:51:25;;;;;;;1.08;0.70;;;;;;;11.24;100.00;101296.81;5048014;28;20072;-83
2024/01/24 02:53:52;;;;;;;0.60;0.60;;;;;;;11.24;100.00;101295.00;5047188;28;20094;-83
2024/01/24 02:56:19;;;;;;;0.75;0.60;;;;;;;11.24;100.00;101300.28;5029175;28;20037;-83
2024/01/24 02:58:45;;;;;;;1.42;0.95;;;;;;;11.24;100.00;101271.31;5047830;28;20501;-83
2024/01/24 03:01:10;;;;;;;1.35;1.10;;;;;;;11.27;100.00;101265.81;5046529;28;20067;-83
2024/01/24 03:03:39;;;;;;;1.25;1.15;;;;;;;11.29;100.00;101279.72;5027691;28;20493;-83
2024/01/24 03:06:05;;;;;;;2.33;1.23;;;;;;;11.30;100.00;101273.50;5047115;28;20052;-84
2024/01/24 03:08:30;;;;;;;1.38;1.27;;;;;;;11.32;100.00;101278.66;5032714;28;20026;-84
2024/01/24 03:10:55;;;;;;;2.33;1.30;;;;;;;11.35;100.00;101277.59;5048499;28;20086;-83
2024/01/24 03:13:21;;;;;;;1.80;1.30;;;;;;;11.36;100.00;101274.03;5048232;28;20021;-84
2024/01/24 03:15:46;;;;;;;1.50;1.20;;;;;;;11.38;100.00;101266.84;5045358;28;20029;-84
2024/01/24 03:18:12;;;;;;;1.30;1.08;;;;;;;11.38;100.00;101264.22;5029592;28;20029;-84
2024/01/24 03:20:37;;;;;;;1.38;1.10;;;;;;;11.39;100.00;101285.19;5018989;28;20128;-84
2024/01/24 03:23:03;;;;;;;1.92;1.02;;;;;;;11.38;100.00;101285.28;5046741;28;20024;-84
2024/01/24 03:25:31;;;;;;;1.40;0.82;;;;;;;11.37;100.00;101302.91;5024022;28;20484;-85
2024/01/24 03:27:57;;;;;;;4.93;1.48;;;;;;;11.35;100.00;101309.22;5021852;28;20035;-85
2024/01/24 03:30:25;;;;;;;3.05;0.90;;;;;;;11.38;100.00;101306.38;5045610;28;20021;-85
2024/01/24 03:32:50;;;;;;;5.70;1.10;;;;;;;11.40;100.00;101323.75;5047807;28;20113;-86
2024/01/24 03:35:15;;;;;;;3.88;1.00;;;;;;;11.40;100.00;101334.28;5047341;28;20107;-86
2024/01/24 03:37:41;;;;;;;3.95;1.08;;;;;;;11.36;100.00;101347.78;5046304;28;20021;-87
2024/01/24 03:40:07;;;;;;;3.30;1.30;;;;;;;11.39;100.00;101358.97;5046031;28;20024;-86
2024/01/24 03:42:36;;;;;;;3.45;1.00;;;;;;;11.41;100.00;101358.84;5046260;28;20036;-86
2024/01/24 03:45:01;;;;;;;3.50;1.08;;;;;;;11.44;100.00;101345.47;5029290;28;20575;-87
2024/01/24 03:47:27;;;;;;;7.28;1.58;;;;;;;11.45;100.00;101366.44;5027161;28;20116;-87
2024/01/24 03:49:55;;;;;;;5.35;1.73;;;;;;;11.45;100.00;101370.84;5046146;28;20032;-87
2024/01/24 03:52:20;;;;;;;3.92;1.40;;;;;;;11.45;100.00;101362.97;5047195;28;20037;-87
2024/01/24 03:54:46;;;;;;;5.07;1.77;;;;;;;11.48;100.00;101373.28;5028923;28;20035;-85
2024/01/24 03:57:11;;;;;;;4.97;1.42;;;;;;;11.49;100.00;101382.88;5039451;28;20033;-87
2024/01/24 03:59:40;;;;;;;10.10;2.00;;;;;;;11.51;100.00;101371.28;5045277;28;20273;-86
2024/01/24 04:02:05;;;;;;;7.85;2.03;;;;;;;11.52;100.00;101375.59;5049561;28;20040;-86
2024/01/24 04:04:31;;;;;;;9.57;2.45;;;;;;;11.54;100.00;101363.16;5032283;28;20025;-86
2024/01/24 04:07:02;;;;;;;9.63;2.60;;;;;;;11.52;100.00;101386.13;5051220;28;20029;-86
2024/01/24 04:09:27;;;;;;;11.55;2.70;;;;;;;11.52;100.00;101366.84;5050821;28;20678;-86
2024/01/24 04:11:53;;;;;;;10.98;2.83;;;;;;;11.50;100.00;101366.13;5050340;28;20032;-86
2024/01/24 04:14:18;;;;;;;12.95;3.47;;;;;;;11.52;100.00;101345.75;5029548;28;20465;-85
2024/01/24 04:16:44;;;;;;;14.43;2.92;;;;;;;11.50;100.00;101372.22;5049579;28;20036;-86
2024/01/24 04:19:09;;;;;;;11.50;3.05;;;;;;;11.48;100.00;101368.00;5049916;28;20078;-87
2024/01/24 04:21:42;;;;;;;12.55;3.08;;;;;;;11.44;100.00;101387.63;5040636;28;20496;-86
2024/01/24 04:24:07;;;;;;;16.13;3.63;;;;;;;11.45;100.00;101371.69;5052240;28;20478;-86
2024/01/24 04:26:33;;;;;;;12.68;3.20;;;;;;;11.40;100.00;101375.59;5051902;28;20056;-87
2024/01/24 04:28:58;;;;;;;14.13;4.00;;;;;;;11.42;100.00;101389.53;5034210;28;20021;-86
2024/01/24 04:31:24;;;;;;;14.07;3.72;;;;;;;11.41;100.00;101407.13;5049982;28;20021;-86
2024/01/24 04:33:50;;;;;;;18.13;4.00;;;;;;;11.38;100.00;101414.41;5049770;28;20024;-85
2024/01/24 04:36:15;;;;;;;19.95;5.00;;;;;;;11.37;100.00;101415.34;5052281;28;20029;-86
2024/01/24 04:38:40;;;;;;;17.70;4.35;;;;;;;11.37;100.00;101421.44;5051277;28;20512;-85
2024/01/24 04:41:08;;;;;;;18.08;4.63;;;;;;;11.31;100.00;101419.25;5050290;28;20025;-87
2024/01/24 04:43:34;;;;;;;22.17;4.72;;;;;;;11.26;100.00;101410.81;5052147;28;20044;-87
2024/01/24 04:46:00;;;;;;;19.05;5.10;;;;;;;11.19;100.00;101410.34;5051088;28;20025;-87
2024/01/24 04:48:25;;;;;;;21.50;4.85;;;;;;;11.16;100.00;101410.56;5030434;28;20033;-86
2024/01/24 04:50:53;;;;;;;24.08;4.78;;;;;;;11.17;100.00;101443.84;5046506;28;20120;-87
2024/01/24 04:53:19;;;;;;;17.73;5.25;;;;;;;11.19;100.00;101433.22;5047790;28;20501;-86
2024/01/24 04:55:45;;;;;;;15.20;4.25;;;;;;;11.19;100.00;101427.94;5029478;28;20029;-86
2024/01/24 04:58:11;;;;;;;23.27;4.97;;;;;;;11.18;100.00;101421.00;5044111;28;20033;-86
2024/01/24 05:00:37;;;;;;;23.48;5.60;;;;;;;11.14;100.00;101386.13;5046462;28;20017;-85
2024/01/24 05:03:03;;;;;;;23.15;5.03;;;;;;;11.15;100.00;101427.31;5049086;28;20043;-87
2024/01/24 05:05:28;;;;;;;22.67;5.43;;;;;;;11.13;100.00;101420.47;5016549;28;20071;-87
2024/01/24 05:07:54;;;;;;;22.25;5.88;;;;;;;11.10;100.00;101405.72;5046877;28;20078;-86
2024/01/24 05:10:22;;;;;;;23.65;5.70;;;;;;;11.09;100.00;101406.66;5049094;28;20033;-87
2024/01/24 05:12:48;;;;;;;24.52;6.43;;;;;;;11.06;100.00;101422.66;5048787;28;20033;-87
2024/01/24 05:15:13;;;;;;;24.27;5.30;;;;;;;11.08;100.00;101433.94;5049636;28;20043;-87
2024/01/24 05:17:39;;;;;;;24.20;5.65;;;;;;;11.07;100.00;101469.13;5050280;28;20491;-87
2024/01/24 05:20:06;;;;;;;26.55;6.03;;;;;;;11.09;100.00;101483.03;5049808;28;20495;-87
2024/01/24 05:22:32;;;;;;;26.58;6.38;;;;;;;11.10;100.00;101468.06;5030128;28;20419;-87
2024/01/24 05:24:58;;;;;;;26.10;6.28;;;;;;;11.10;100.00;101468.06;5047245;28;20160;-87
2024/01/24 05:27:24;;;;;;;25.60;6.38;;;;;;;11.10;100.00;101479.44;5048855;28;20028;-86
2024/01/24 05:29:49;;;;;;;25.00;6.30;;;;;;;11.10;100.00;101474.19;5034090;28;20059;-86
2024/01/24 05:32:14;;;;;;;25.08;5.97;;;;;;;11.11;100.00;101475.03;5030822;28;20477;-87
2024/01/24 05:34:40;;;;;;;28.15;6.80;;;;;;;11.10;100.00;101490.00;5050407;28;20029;-87
2024/01/24 05:37:05;;;;;;;25.63;6.55;;;;;;;11.08;100.00;101478.72;5046932;28;20492;-86
2024/01/24 05:39:31;;;;;;;30.02;6.55;;;;;;;11.06;100.00;101480.59;5050413;28;20055;-87
2024/01/24 05:41:56;;;;;;;28.65;6.55;;;;;;;11.05;100.00;101497.34;5047501;28;20036;-87
2024/01/24 05:44:21;;;;;;;31.60;6.53;;;;;;;11.04;100.00;101492.19;5048010;28;20029;-86
2024/01/24 05:46:50;;;;;;;29.25;6.72;;;;;;;11.04;100.00;101479.84;5049873;28;20389;-86
2024/01/24 05:49:15;;;;;;;30.65;6.78;;;;;;;10.98;100.00;101501.34;5031047;28;20036;-86
2024/01/24 05:51:42;;;;;;;29.88;6.63;;;;;;;10.94;100.00;101505.97;5028899;28;20072;-87
2024/01/24 05:54:07;;;;;;;31.23;7.53;;;;;;;10.94;100.00;101505.09;5030071;28;20040;-86
2024/01/24 05:56:33;;;;;;;32.53;7.40;;;;;;;10.92;100.00;101520.16;5031162;28;20036;-87
2024/01/24 05:58:58;;;;;;;27.73;6.97;;;;;;;10.94;100.00;101515.66;5029869;28;20033;-86
2024/01/24 06:01:24;;;;;;;25.60;6.72;;;;;;;10.94;100.00;101515.66;5047172;28;20072;-87
2024/01/24 06:03:49;;;;;;;26.85;6.95;;;;;;;10.92;100.00;101528.06;5038946;28;20492;-87
2024/01/24 06:06:15;;;;;;;29.52;7.40;;;;;;;10.93;100.00;101503.44;5048525;28;20036;-87
2024/01/24 06:08:40;;;;;;;33.40;8.23;;;;;;;10.93;100.00;101532.38;5049274;28;20028;-87
2024/01/24 06:11:05;;;;;;;34.15;8.15;;;;;;;10.91;100.00;101543.00;5047117;28;20431;-87
2024/01/24 06:13:31;;;;;;;30.63;7.68;;;;;;;10.90;100.00;101558.91;5031002;28;20035;-86
2024/01/24 06:15:57;;;;;;;33.67;7.50;;;;;;;10.88;100.00;101526.56;5048640;28;20032;-87
2024/01/24 06:18:22;;;;;;;34.30;7.47;;;;;;;10.86;100.00;101554.78;5044362;28;20108;-87
2024/01/24 06:20:48;;;;;;;33.05;7.90;;;;;;;10.89;100.00;101559.84;5019406;28;20028;-87
2024/01/24 06:23:13;;;;;;;34.65;7.93;;;;;;;10.87;100.00;101590.69;5048711;28;20025;-87
2024/01/24 06:25:39;;;;;;;36.85;7.85;;;;;;;10.84;100.00;101581.22;5030180;28;20036;-86
2024/01/24 06:28:04;;;;;;;35.50;7.70;;;;;;;10.79;100.00;101579.78;5047704;28;20075;-87
2024/01/24 06:30:30;;;;;;;32.72;8.35;;;;;;;10.78;100.00;101599.16;5048221;28;20032;-87
2024/01/24 06:32:55;;;;;;;37.63;8.93;;;;;;;10.75;100.00;101604.63;5044904;28;20036;-87
2024/01/24 06:35:21;;;;;;;38.08;8.95;;;;;;;10.71;100.00;101619.75;5045722;28;20396;-86
2024/01/24 06:37:51;;;;;;;35.95;8.60;;;;;;;10.70;100.00;101607.53;5049994;28;20477;-85
2024/01/24 06:40:19;;;;;;;37.67;8.57;;;;;;;10.67;100.00;101634.88;5028108;28;20056;-87
2024/01/24 06:42:46;;;;;;;35.85;9.23;;;;;;;10.66;100.00;101638.47;5046413;28;20028;-86
2024/01/24 06:45:12;;;;;;;36.80;8.93;;;;;;;10.65;100.00;101651.72;5029787;28;20028;-87
2024/01/24 06:47:37;;;;;;;39.83;8.73;;;;;;;10.62;100.00;101639.59;5027920;28;20052;-87
2024/01/24 06:50:03;;;;;;;37.28;9.45;;;;;;;10.62;100.00;101651.91;5042502;28;20039;-87
2024/01/24 06:52:30;;;;;;;38.72;8.50;;;;;;;10.60;100.00;101675.69;5028896;28;20049;-87
2024/01/24 06:54:55;;;;;;;39.88;8.90;;;;;;;10.57;100.00;101689.03;5046481;28;20029;-87
2024/01/24 06:57:21;;;;;;;39.28;9.18;;;;;;;10.57;100.00;101711.88;5045522;28;20021;-85
2024/01/24 06:59:46;;;;;;;36.75;9.25;;;;;;;10.53;100.00;101716.47;5047201;28;20424;-86
2024/01/24 07:02:13;;;;;;;44.03;9.88;;;;;;;10.47;100.00;101713.38;5046418;28;20491;-87
2024/01/24 07:04:38;;;;;;;39.25;9.90;;;;;;;10.42;100.00;101707.53;5047921;28;20396;-86
2024/01/24 07:07:04;;;;;;;35.22;8.75;;;;;;;10.38;100.00;101683.16;5036889;28;20032;-85
2024/01/24 07:09:29;;;;;;;42.17;9.95;;;;;;;10.35;100.00;101685.97;5037874;28;20037;-87
2024/01/24 07:11:54;;;;;;;38.38;9.02;;;;;;;10.33;99.78;101695.75;5045003;28;20439;-87
2024/01/24 07:14:20;;;;;;;38.67;8.70;;;;;;;10.29;100.00;101702.13;5047106;28;20065;-87
2024/01/24 07:16:45;;;;;;;47.70;9.95;;;;;;;10.26;100.00;101702.31;5045709;28;20040;-86
2024/01/24 07:19:11;;;;;;;35.40;8.95;;;;;;;10.22;100.00;101685.88;5032769;28;20204;-87
2024/01/24 07:21:36;;;;;;;39.80;9.20;;;;;;;10.20;100.00;101718.44;5047188;28;20390;-87
2024/01/24 07:24:02;;;;;;;46.78;9.93;;;;;;;10.18;100.00;101730.81;5049073;28;20037;-86
2024/01/24 07:26:31;;;;;;;42.20;9.77;;;;;;;10.12;100.00;101711.00;5049512;28;20515;-86
2024/01/24 07:28:56;;;;;;;40.53;9.40;;;;;;;10.14;100.00;101708.28;5044478;28;20037;-85
2024/01/24 07:31:22;;;;;;;44.53;10.30;;;;;;;10.10;100.00;101727.78;5031693;28;20501;-86
2024/01/24 07:33:50;;;;;;;37.03;9.38;;;;;;;10.04;100.00;101743.00;5049526;28;20047;-86
2024/01/24 07:36:15;;;;;;;36.42;9.05;;;;;;;10.03;100.00;101754.44;5051796;28;20040;-86
2024/01/24 07:38:41;;;;;;;38.47;9.68;;;;;;;9.97;100.00;101764.44;5053262;28;20025;-86
2024/01/24 07:41:07;;;;;;;35.78;8.65;;;;;;;10.01;98.87;101756.31;5053224;28;20060;-86
2024/01/24 07:43:33;;;;;;;41.35;9.20;;;;;;;9.99;97.43;101745.00;5052725;28;20028;-85
2024/01/24 07:45:58;;;;;;;41.25;8.98;;;;;;;9.96;97.70;101739.94;5052810;28;20029;-86
2024/01/24 07:48:24;;;;;;;42.78;9.82;;;;;;;9.93;97.09;101753.25;5051917;28;20025;-86
2024/01/24 07:50:49;;;;;;;43.60;9.75;;;;;;;9.92;97.00;101748.94;5052499;28;20059;-86
2024/01/24 07:53:15;;;;;;;34.90;9.05;;;;;;;9.91;96.27;101765.63;5051174;28;20112;-86
2024/01/24 07:55:40;;;;;;;42.78;9.95;;;;;;;9.88;97.23;101773.69;5049343;28;20074;-86
2024/01/24 07:58:09;;;;;;;35.25;9.90;;;;;;;9.87;95.99;101789.56;5050874;28;20028;-84
2024/01/24 08:00:35;;;;;;;42.35;9.93;;;;;;;9.81;96.33;101796.00;5035005;28;20025;-86
2024/01/24 08:03:00;;;;;;;44.35;10.45;;;;;;;9.78;95.89;101801.44;5051990;28;20031;-86
2024/01/24 08:05:29;;;;;;;41.15;9.32;;;;;;;9.78;95.10;101795.31;5052399;28;20548;-86
2024/01/24 08:07:54;;;;;;;40.08;8.98;;;;;;;9.76;95.53;101792.78;5032093;28;20029;-85
2024/01/24 08:10:20;;;;;;;40.15;9.40;;;;;;;9.76;95.73;101791.94;5031654;28;20076;-86
2024/01/24 08:12:45;;;;;;;39.78;10.18;;;;;;;9.73;95.46;101798.22;5032902;28;20018;-86
2024/01/24 08:15:11;;;;;;;43.47;10.15;;;;;;;9.72;96.55;101800.00;5056288;28;20021;-85
2024/01/24 08:17:36;;;;;;;38.78;9.80;;;;;;;9.70;96.45;101808.91;5046526;28;20071;-85
2024/01/24 08:20:04;;;;;;;39.42;9.02;;;;;;;9.70;96.40;101819.41;5051765;28;20025;-85
2024/01/24 08:22:30;;;;;;;39.70;10.30;;;;;;;9.75;95.44;101814.75;5052365;28;20029;-85
2024/01/24 08:24:55;;;;;;;37.78;9.23;;;;;;;9.77;95.34;101825.16;5051095;28;20029;-85
2024/01/24 08:27:21;;;;;;;39.33;9.48;;;;;;;9.78;95.19;101848.75;5052036;28;20028;-85
2024/01/24 08:29:46;;;;;;;37.83;9.40;;;;;;;9.82;94.84;101845.00;5051305;28;20062;-85
2024/01/24 08:32:12;;;;;;;43.85;10.10;;;;;;;9.81;95.60;101814.41;5048893;28;20082;-84
2024/01/24 08:34:38;;;;;;;42.45;10.15;;;;;;;9.83;95.68;101828.31;5050693;28;20102;-85
2024/01/24 08:37:04;;;;;;;43.17;9.75;;;;;;;9.84;94.43;101837.03;5049587;28;20485;-85
2024/01/24 08:39:29;;;;;;;50.58;10.60;;;;;;;9.81;95.53;101848.56;5050656;28;20050;-85
2024/01/24 08:41:55;;;;;;;42.08;9.52;;;;;;;9.87;94.65;101852.63;5033825;28;20370;-84
2024/01/24 08:44:20;;;;;;;41.22;9.88;;;;;;;9.86;95.30;101864.94;5034165;28;20021;-84
2024/01/24 08:46:46;;;;;;;38.10;9.32;;;;;;;9.88;95.92;101860.44;5049228;28;20496;-85
2024/01/24 08:49:12;;;;;;;42.92;9.65;;;;;;;9.89;96.35;101880.53;5030854;28;20028;-85
2024/01/24 08:51:38;;;;;;;45.17;10.27;;;;;;;9.92;97.17;101871.63;5050675;28;20084;-85
2024/01/24 08:54:04;;;;;;;40.17;9.85;;;;;;;9.93;95.09;101863.66;5031111;28;20037;-85
2024/01/24 08:56:29;;;;;;;34.25;9.38;;;;;;;9.97;95.32;101864.34;5048660;28;20040;-84
2024/01/24 08:58:55;;;;;;;43.03;9.82;;;;;;;9.95;95.67;101856.53;5031662;28;20060;-84
2024/01/24 09:01:20;;;;;;;39.20;10.02;;;;;;;9.96;95.22;101865.28;5049664;28;20033;-85
2024/01/24 09:03:50;;;;;;;38.72;8.90;;;;;;;9.98;94.41;101880.03;5047169;28;20020;-85
2024/01/24 09:06:15;;;;;;;41.22;10.40;;;;;;;9.98;94.92;101901.06;5051001;28;20017;-84
2024/01/24 09:08:43;;;;;;;39.97;9.85;;;;;;;9.96;95.16;101910.81;5050031;28;20032;-85
2024/01/24 09:11:08;;;;;;;38.38;9.63;;;;;;;9.98;95.01;101924.72;5049037;28;20061;-85
2024/01/24 09:13:34;;;;;;;43.92;11.43;;;;;;;9.97;95.31;101920.41;5028039;28;20052;-86
2024/01/24 09:16:00;;;;;;;36.97;9.20;;;;;;;9.96;94.64;101905.56;5046066;28;20392;-85
2024/01/24 09:18:25;;;;;;;44.58;10.77;;;;;;;9.97;95.18;101902.00;5042421;28;20031;-86
2024/01/24 09:20:51;;;;;;;45.08;11.13;;;;;;;9.98;95.56;101898.44;5047892;28;20560;-84
2024/01/24 09:23:16;;;;;;;44.75;10.38;;;;;;;10.03;94.81;101909.56;5041916;28;20031;-85
2024/01/24 09:25:42;;;;;;;39.55;10.10;;;;;;;10.09;94.78;101939.09;5047875;28;20104;-85
2024/01/24 09:28:08;;;;;;;47.72;10.43;;;;;;;10.08;95.87;101929.50;5048493;28;20225;-85
2024/01/24 09:30:34;;;;;;;48.20;11.10;;;;;;;10.13;94.86;101940.63;5049315;28;20017;-85
2024/01/24 09:33:00;;;;;;;42.67;10.18;;;;;;;10.15;95.49;101952.75;5047008;28;20389;-86
2024/01/24 09:35:25;;;;;;;44.97;10.02;;;;;;;10.15;96.57;101967.69;5050409;28;20032;-86
2024/01/24 09:37:51;;;;;;;42.85;9.25;;;;;;;10.18;95.05;101972.78;5050592;28;20431;-86
2024/01/24 09:40:19;;;;;;;45.50;10.45;;;;;;;10.25;94.22;101989.94;5048635;28;20025;-85
2024/01/24 09:43:01;;;;;;;36.38;9.18;;;;;;;10.28;95.78;101979.25;5032253;28;20013;-85
2024/01/24 09:45:31;;;;;;;50.72;11.45;;;;;;;10.26;94.77;102002.16;5049163;28;20048;-86
2024/01/24 09:47:58;;;;;;;42.03;10.13;;;;;;;10.27;93.69;101998.59;5048148;28;20043;-85
2024/01/24 09:50:24;;;;;;;41.28;10.23;;;;;;;10.26;94.43;101981.13;5045331;28;20025;-85
2024/01/24 09:52:54;;;;;;;42.55;9.80;;;;;;;10.24;94.56;101972.47;5049881;28;20031;-85
2024/01/24 09:55:20;;;;;;;47.50;10.00;;;;;;;10.26;93.39;101973.22;5047868;28;20107;-85
2024/01/24 09:57:45;;;;;;;44.40;11.02;;;;;;;10.24;93.79;101985.63;5047576;28;20117;-85
2024/01/24 10:00:14;;;;;;;44.42;10.88;;;;;;;10.22;94.37;101995.38;5049647;28;20194;-86
2024/01/24 10:02:40;;;;;;;42.67;10.32;;;;;;;10.21;93.71;102010.31;5046378;28;20025;-85
2024/01/24 10:05:12;;;;;;;43.47;10.00;;;;;;;10.19;94.52;102016.56;5049790;28;20111;-85
2024/01/24 10:07:38;;;;;;;35.95;9.15;;;;;;;10.21;93.11;102019.97;5041904;28;20155;-86
2024/01/24 10:10:09;;;;;;;47.90;11.15;;;;;;;10.22;93.08;102032.19;5036082;28;20025;-83
2024/01/24 10:12:35;;;;;;;45.70;10.32;;;;;;;10.24;93.41;102022.44;5049842;28;20036;-84
2024/01/24 10:15:01;;;;;;;42.83;10.13;;;;;;;10.27;92.53;102036.28;5033520;28;20025;-85
2024/01/24 10:17:27;;;;;;;39.60;9.38;;;;;;;10.27;92.08;102027.53;5044485;28;20140;-84
2024/01/24 10:19:52;;;;;;;42.90;9.95;;;;;;;10.34;91.93;102045.53;5028780;28;20034;-84
2024/01/24 10:22:19;;;;;;;40.78;9.13;;;;;;;10.43;92.11;102046.00;5037321;28;20036;-84
2024/01/24 10:24:44;;;;;;;43.85;9.75;;;;;;;10.47;90.48;102039.63;5047311;28;20021;-81
2024/01/24 10:27:10;;;;;;;41.75;10.60;;;;;;;10.52;90.00;102062.13;5049386;28;20021;-83
2024/01/24 10:29:38;;;;;;;40.85;9.77;;;;;;;10.56;90.68;102058.41;5031171;28;20033;-85
2024/01/24 10:32:09;;;;;;;45.40;10.15;;;;;;;10.63;90.58;102072.06;5030657;28;20031;-85
2024/01/24 10:34:35;;;;;;;39.67;9.55;;;;;;;10.67;89.63;102061.28;5031765;28;20456;-85
2024/01/24 10:37:01;;;;;;;39.30;9.55;;;;;;;10.66;89.48;102070.09;5048942;28;20029;-85
2024/01/24 10:39:27;;;;;;;35.63;9.07;;;;;;;10.65;88.92;102063.16;5049184;28;20385;-85
2024/01/24 10:42:02;;;;;;;37.33;9.27;;;;;;;10.67;87.65;102084.13;5049522;28;20024;-86
2024/01/24 10:44:32;;;;;;;34.22;8.95;;;;;;;10.65;87.39;102089.47;5049157;28;20025;-87
2024/01/24 10:46:57;;;;;;;35.20;8.80;;;;;;;10.70;88.08;102093.63;5029839;28;20048;-86
2024/01/24 10:49:24;;;;;;;39.78;9.52;;;;;;;10.69;87.74;102074.34;5049455;28;20445;-86
2024/01/24 10:51:50;;;;;;;44.10;9.90;;;;;;;10.72;87.83;102081.22;5048824;28;20571;-86
2024/01/24 10:54:16;;;;;;;35.60;9.73;;;;;;;10.77;87.94;102079.19;5049023;28;20430;-86
2024/01/24 10:56:50;;;;;;;31.55;8.50;;;;;;;10.76;86.27;102072.22;5049603;28;20124;-80
2024/01/24 10:59:16;;;;;;;42.95;8.88;;;;;;;10.80;85.87;102068.50;5049105;28;20541;-84
2024/01/24 11:01:42;;;;;;;36.10;9.02;;;;;;;10.81;85.18;102088.66;5061001;28;20415;-85
2024/01/24 11:04:10;;;;;;;35.58;9.65;;;;;;;10.78;84.38;102088.78;5067360;28;20024;-84
2024/01/24 11:06:45;;;;;;;35.80;9.35;;;;;;;10.78;86.22;102099.31;5049463;28;20389;-84
2024/01/24 11:09:24;;;;;;;38.30;8.98;;;;;;;10.83;86.66;102092.03;5047503;28;20021;-84